| time (UTC) | temp F | wind direction | speed knots | gust knots | rain 1hr in | rain 24hr in | rain mn in | humidity % | barometer mb |
| 20260906191431 | 78 | 195 | 6.1 | 7.8 | 0.00 | 0.00 | 0.00 | 76 | 1018.7 |
| 20260906190931 | 78 | 170 | 4.3 | 7.0 | 0.00 | 0.00 | 0.00 | 76 | 1018.8 |
| 20260906190431 | 77 | 182 | 2.6 | 3.5 | 0.00 | 0.00 | 0.00 | 76 | 1018.8 |
| 20260906185931 | 77 | 172 | 2.6 | 3.5 | 0.00 | 0.00 | 0.00 | 76 | 1018.8 |
| 20260906185433 | 77 | 158 | 1.7 | 2.6 | 0.00 | 0.00 | 0.00 | 77 | 1018.7 |
| 20260906184931 | 77 | 170 | 3.5 | 5.2 | 0.00 | 0.00 | 0.00 | 76 | 1018.7 |
| 20260906184432 | 77 | 167 | 2.6 | 3.5 | 0.00 | 0.00 | 0.00 | 76 | 1018.7 |
| 20260906183931 | 77 | 171 | 1.7 | 2.6 | 0.00 | 0.00 | 0.00 | 77 | 1018.7 |
| 20260906183432 | 76 | 175 | 1.7 | 2.6 | 0.00 | 0.00 | 0.00 | 78 | 1018.8 |
| 20260906182931 | 76 | 154 | 3.5 | 6.1 | 0.00 | 0.00 | 0.00 | 78 | 1018.9 |
| 20260906182431 | 76 | 125 | 1.7 | 4.3 | 0.00 | 0.00 | 0.00 | 78 | 1019.0 |
| 20260906181931 | 76 | 209 | 3.5 | 4.3 | 0.00 | 0.00 | 0.00 | 78 | 1019.0 |
| 20260906181431 | 76 | 129 | 1.7 | 2.6 | 0.00 | 0.00 | 0.00 | 79 | 1018.9 |
| 20260906180931 | 75 | 212 | 0.9 | 1.7 | 0.00 | 0.00 | 0.00 | 79 | 1018.8 |
| 20260906180433 | 75 | 205 | 3.5 | 7.8 | 0.00 | 0.00 | 0.00 | 79 | 1019.1 |
| 20260906175931 | 75 | 159 | 2.6 | 4.3 | 0.00 | 0.00 | 0.00 | 79 | 1019.0 |
| 20260906175431 | 75 | 186 | 4.3 | 9.6 | 0.00 | 0.00 | 0.00 | 80 | 1019.1 |
| 20260906174931 | 74 | 94 | 3.5 | 6.1 | 0.00 | 0.00 | 0.00 | 80 | 1019.1 |
| 20260906174431 | 74 | 172 | 1.7 | 3.5 | 0.00 | 0.00 | 0.00 | 80 | 1019.1 |
| 20260906173931 | 74 | 168 | 5.2 | 8.7 | 0.00 | 0.00 | 0.00 | 80 | 1019.1 |
| 20260906173431 | 74 | 108 | 2.6 | 5.2 | 0.00 | 0.00 | 0.00 | 80 | 1019.2 |
| 20260906172931 | 74 | 169 | 4.3 | 7.8 | 0.00 | 0.00 | 0.00 | 80 | 1019.3 |
| 20260906172431 | 74 | 166 | 2.6 | 4.3 | 0.00 | 0.00 | 0.00 | 80 | 1019.2 |
| 20260906171931 | 74 | 133 | 3.5 | 5.2 | 0.00 | 0.00 | 0.00 | 80 | 1019.3 |
| 20260906171431 | 74 | 153 | 2.6 | 4.3 | 0.00 | 0.00 | 0.00 | 80 | 1019.3 |
| 20260906170931 | 74 | 203 | 0.9 | 2.6 | 0.00 | 0.00 | 0.00 | 80 | 1019.3 |
| 20260906170431 | 74 | 139 | 3.5 | 5.2 | 0.00 | 0.00 | 0.00 | 80 | 1019.3 |
| 20260906165931 | 74 | 99 | 3.5 | 5.2 | 0.00 | 0.00 | 0.00 | 80 | 1019.4 |
| 20260906165431 | 74 | 187 | 2.6 | 6.1 | 0.00 | 0.00 | 0.00 | 80 | 1019.5 |
| 20260906164932 | 74 | 143 | 1.7 | 2.6 | 0.00 | 0.00 | 0.00 | 80 | 1019.5 |
| 20260906164431 | 75 | 161 | 5.2 | 7.0 | 0.00 | 0.00 | 0.00 | 80 | 1019.4 |
| 20260906163931 | 75 | 104 | 3.5 | 3.5 | 0.00 | 0.00 | 0.00 | 80 | 1019.5 |
| 20260906163431 | 75 | 197 | 5.2 | 7.8 | 0.00 | 0.00 | 0.00 | 80 | 1019.6 |
| 20260906162931 | 74 | 176 | 2.6 | 3.5 | 0.00 | 0.00 | 0.00 | 80 | 1019.5 |
| 20260906162432 | 74 | 129 | 1.7 | 2.6 | 0.00 | 0.00 | 0.00 | 80 | 1019.5 |
| 20260906161931 | 74 | 157 | 4.3 | 7.8 | 0.00 | 0.00 | 0.00 | 79 | 1019.5 |
| 20260906161431 | 75 | 112 | 2.6 | 5.2 | 0.00 | 0.00 | 0.00 | 80 | 1019.5 |
| 20260906160931 | 75 | 175 | 3.5 | 5.2 | 0.00 | 0.00 | 0.00 | 80 | 1019.5 |
| 20260906160434 | 75 | 133 | 4.3 | 7.0 | 0.00 | 0.00 | 0.00 | 80 | 1019.5 |
| 20260906155932 | 75 | 105 | 4.3 | 7.0 | 0.00 | 0.00 | 0.00 | 79 | 1019.6 |
| 20260906155431 | 75 | 98 | 1.7 | 1.7 | 0.00 | 0.00 | 0.00 | 80 | 1019.7 |
| 20260906154931 | 75 | 158 | 0.9 | 1.7 | 0.00 | 0.00 | 0.00 | 80 | 1019.7 |
| 20260906154431 | 75 | 203 | 4.3 | 5.2 | 0.00 | 0.00 | 0.00 | 80 | 1019.8 |
| 20260906153931 | 74 | 181 | 3.5 | 6.1 | 0.00 | 0.00 | 0.00 | 80 | 1019.7 |
| 20260906153431 | 75 | 149 | 7.0 | 7.0 | 0.00 | 0.00 | 0.00 | 80 | 1019.7 |
| 20260906152932 | 75 | 133 | 3.5 | 4.3 | 0.00 | 0.00 | 0.00 | 81 | 1019.7 |
| 20260906152431 | 74 | 175 | 1.7 | 4.3 | 0.00 | 0.00 | 0.00 | 81 | 1019.7 |
| 20260906151931 | 74 | 171 | 3.5 | 6.1 | 0.00 | 0.00 | 0.00 | 81 | 1019.7 |
| 20260906151431 | 74 | 155 | 3.5 | 4.3 | 0.00 | 0.00 | 0.00 | 81 | 1019.7 |
| 20260906150931 | 74 | 165 | 2.6 | 4.3 | 0.00 | 0.00 | 0.00 | 81 | 1019.7 |
| 20260906150431 | 74 | 144 | 3.5 | 4.3 | 0.00 | 0.00 | 0.00 | 81 | 1019.8 |
| 20260906145932 | 74 | 113 | 3.5 | 5.2 | 0.00 | 0.00 | 0.00 | 81 | 1019.7 |
| 20260906145431 | 74 | 195 | 2.6 | 4.3 | 0.00 | 0.00 | 0.00 | 81 | 1019.7 |
| 20260906144931 | 74 | 169 | 2.6 | 3.5 | 0.00 | 0.00 | 0.00 | 82 | 1019.6 |
| 20260906144431 | 74 | 156 | 3.5 | 7.0 | 0.00 | 0.00 | 0.00 | 81 | 1019.5 |
| 20260906143931 | 74 | 150 | 2.6 | 5.2 | 0.00 | 0.00 | 0.00 | 82 | 1019.3 |
| 20260906143432 | 74 | 137 | 2.6 | 6.1 | 0.00 | 0.00 | 0.00 | 82 | 1019.4 |
| 20260906142931 | 74 | 144 | 2.6 | 5.2 | 0.00 | 0.00 | 0.00 | 82 | 1019.4 |
| 20260906142436 | 74 | 149 | 3.5 | 6.1 | 0.00 | 0.00 | 0.00 | 83 | 1019.5 |
| 20260906141931 | 73 | 123 | 3.5 | 6.1 | 0.00 | 0.00 | 0.00 | 83 | 1019.5 |
| 20260906141431 | 73 | 129 | 2.6 | 5.2 | 0.00 | 0.00 | 0.00 | 84 | 1019.5 |
| 20260906140932 | 73 | 173 | 1.7 | 3.5 | 0.00 | 0.00 | 0.00 | 84 | 1019.5 |
| 20260906140432 | 73 | 182 | 4.3 | 5.2 | 0.00 | 0.00 | 0.00 | 84 | 1019.5 |
| 20260906135931 | 73 | 184 | 4.3 | 6.1 | 0.00 | 0.00 | 0.00 | 85 | 1019.6 |
| 20260906135431 | 72 | 183 | 4.3 | 6.1 | 0.00 | 0.00 | 0.00 | 85 | 1019.7 |
| 20260906134932 | 72 | 174 | 4.3 | 6.1 | 0.00 | 0.00 | 0.00 | 85 | 1019.6 |
| 20260906133954 | 72 | 165 | 0.9 | 1.7 | 0.00 | 0.00 | 0.00 | 86 | 1019.5 |
| 20260906133431 | 71 | 165 | 3.5 | 6.1 | 0.00 | 0.00 | 0.00 | 86 | 1019.5 |
| 20260906132931 | 71 | 143 | 2.6 | 4.3 | 0.00 | 0.00 | 0.00 | 87 | 1019.4 |
| 20260906132431 | 71 | 149 | 1.7 | 3.5 | 0.00 | 0.00 | 0.00 | 87 | 1019.3 |
| 20260906131931 | 71 | 163 | 2.6 | 5.2 | 0.00 | 0.00 | 0.00 | 87 | 1019.2 |
| 20260906131431 | 70 | 152 | 0.9 | 2.6 | 0.00 | 0.00 | 0.00 | 88 | 1019.2 |
| 20260906130931 | 70 | 149 | 1.7 | 2.6 | 0.00 | 0.00 | 0.00 | 88 | 1019.2 |
| 20260906130431 | 70 | 144 | 0.9 | 1.7 | 0.00 | 0.00 | 0.00 | 88 | 1019.2 |
| 20260906125931 | 70 | 171 | 2.6 | 4.3 | 0.00 | 0.00 | 0.00 | 88 | 1019.3 |
| 20260906125431 | 70 | 155 | 0.9 | 1.7 | 0.00 | 0.00 | 0.00 | 88 | 1019.4 |
| 20260906124932 | 70 | 177 | 2.6 | 6.1 | 0.00 | 0.00 | 0.00 | 89 | 1019.4 |
| 20260906124431 | 69 | 169 | 0.9 | 2.6 | 0.00 | 0.00 | 0.00 | 89 | 1019.4 |
| 20260906123931 | 69 | 129 | 0.9 | 2.6 | 0.00 | 0.00 | 0.00 | 89 | 1019.3 |
| 20260906123431 | 69 | 135 | 0.9 | 1.7 | 0.00 | 0.00 | 0.00 | 89 | 1019.3 |
| 20260906122931 | 69 | 151 | 1.7 | 1.7 | 0.00 | 0.00 | 0.00 | 89 | 1019.2 |
| 20260906122431 | 69 | 131 | 0.9 | 2.6 | 0.00 | 0.00 | 0.00 | 89 | 1019.2 |
| 20260906121931 | 69 | 109 | 0.9 | 1.7 | 0.00 | 0.00 | 0.00 | 89 | 1019.2 |
| 20260906121431 | 69 | 137 | 0.9 | 1.7 | 0.00 | 0.00 | 0.00 | 89 | 1019.2 |
| 20260906120931 | 69 | 130 | 1.7 | 1.7 | 0.00 | 0.00 | 0.00 | 89 | 1019.2 |
| 20260906120431 | 69 | 186 | 0.0 | 1.7 | 0.00 | 0.00 | 0.00 | 89 | 1019.1 |
| 20260906115931 | 69 | 191 | 0.9 | 1.7 | 0.00 | 0.00 | 0.00 | 89 | 1019.0 |
| 20260906115431 | 69 | 133 | 1.7 | 1.7 | 0.00 | 0.00 | 0.00 | 89 | 1019.0 |
| 20260906114931 | 69 | 186 | 1.7 | 2.6 | 0.00 | 0.00 | 0.00 | 89 | 1019.0 |
| 20260906114431 | 69 | 143 | 0.9 | 1.7 | 0.00 | 0.00 | 0.00 | 89 | 1018.9 |
| 20260906113931 | 69 | 142 | 0.9 | 1.7 | 0.00 | 0.00 | 0.00 | 89 | 1018.9 |
| 20260906113431 | 69 | 138 | 0.9 | 1.7 | 0.00 | 0.00 | 0.00 | 88 | 1018.9 |
| 20260906112931 | 69 | 160 | 0.9 | 1.7 | 0.00 | 0.00 | 0.00 | 88 | 1018.9 |
| 20260906112431 | 69 | 360 | 0.0 | 0.0 | 0.00 | 0.00 | 0.00 | 88 | 1018.8 |
| 20260906111931 | 69 | 360 | 0.0 | 0.0 | 0.00 | 0.00 | 0.00 | 88 | 1018.8 |
| 20260906111432 | 69 | 135 | 0.0 | 0.9 | 0.00 | 0.00 | 0.00 | 88 | 1018.8 |
| 20260906110931 | 69 | 104 | 0.9 | 1.7 | 0.00 | 0.00 | 0.00 | 88 | 1018.7 |
| 20260906110432 | 69 | 360 | 0.0 | 0.0 | 0.00 | 0.00 | 0.00 | 88 | 1018.7 |
| 20260906105931 | 69 | 360 | 0.0 | 0.0 | 0.00 | 0.00 | 0.00 | 88 | 1018.7 |
| 20260906105431 | 69 | 152 | 1.7 | 2.6 | 0.00 | 0.00 | 0.00 | 88 | 1018.6 |
| 20260906104931 | 70 | 124 | 0.9 | 1.7 | 0.00 | 0.00 | 0.00 | 88 | 1018.6 |
| 20260906104431 | 70 | 157 | 0.0 | 0.9 | 0.00 | 0.00 | 0.00 | 88 | 1018.6 |
| 20260906103931 | 70 | 160 | 0.9 | 1.7 | 0.00 | 0.00 | 0.00 | 87 | 1018.6 |
| 20260906103431 | 70 | 178 | 2.6 | 3.5 | 0.00 | 0.00 | 0.00 | 87 | 1018.6 |
| 20260906102932 | 70 | 155 | 0.9 | 1.7 | 0.00 | 0.00 | 0.00 | 87 | 1018.6 |
| 20260906102432 | 70 | 144 | 0.9 | 2.6 | 0.00 | 0.00 | 0.00 | 87 | 1018.6 |
| 20260906101931 | 70 | 188 | 0.0 | 0.9 | 0.00 | 0.00 | 0.00 | 87 | 1018.6 |
| 20260906101431 | 70 | 133 | 0.9 | 1.7 | 0.00 | 0.00 | 0.00 | 87 | 1018.5 |
| 20260906100931 | 70 | 360 | 0.0 | 0.0 | 0.00 | 0.00 | 0.00 | 87 | 1018.5 |
| 20260906100431 | 70 | 201 | 0.9 | 1.7 | 0.00 | 0.00 | 0.00 | 87 | 1018.4 |
| 20260906095931 | 70 | 179 | 0.9 | 1.7 | 0.00 | 0.00 | 0.00 | 86 | 1018.4 |
| 20260906095431 | 70 | 198 | 0.9 | 1.7 | 0.00 | 0.00 | 0.00 | 86 | 1018.4 |
| 20260906094931 | 70 | 196 | 0.0 | 1.7 | 0.00 | 0.00 | 0.00 | 86 | 1018.3 |
| 20260906094431 | 71 | 194 | 1.7 | 1.7 | 0.00 | 0.00 | 0.00 | 86 | 1018.2 |
| 20260906093931 | 71 | 198 | 0.9 | 1.7 | 0.00 | 0.00 | 0.00 | 86 | 1017.9 |
| 20260906093432 | 71 | 163 | 1.7 | 3.5 | 0.00 | 0.00 | 0.00 | 86 | 1017.7 |
| 20260906092931 | 71 | 192 | 0.9 | 2.6 | 0.00 | 0.00 | 0.00 | 86 | 1017.6 |
| 20260906092432 | 71 | 176 | 0.9 | 1.7 | 0.00 | 0.00 | 0.00 | 86 | 1017.7 |
| 20260906091931 | 71 | 195 | 2.6 | 3.5 | 0.00 | 0.00 | 0.00 | 86 | 1017.7 |
| 20260906091431 | 71 | 139 | 1.7 | 3.5 | 0.00 | 0.00 | 0.00 | 86 | 1017.6 |
| 20260906090931 | 71 | 117 | 0.9 | 3.5 | 0.00 | 0.00 | 0.00 | 86 | 1017.6 |
| 20260906090431 | 71 | 69 | 0.9 | 1.7 | 0.00 | 0.00 | 0.00 | 86 | 1017.6 |
| 20260906085931 | 71 | 151 | 0.0 | 0.9 | 0.00 | 0.00 | 0.00 | 85 | 1017.7 |
| 20260906085431 | 71 | 136 | 1.7 | 2.6 | 0.00 | 0.00 | 0.00 | 85 | 1017.8 |
| 20260906084931 | 71 | 102 | 1.7 | 1.7 | 0.00 | 0.00 | 0.00 | 85 | 1017.8 |
| 20260906084431 | 71 | 110 | 2.6 | 3.5 | 0.00 | 0.00 | 0.00 | 85 | 1017.7 |
| 20260906083931 | 72 | 113 | 0.9 | 1.7 | 0.00 | 0.00 | 0.00 | 85 | 1017.8 |
| 20260906083431 | 72 | 178 | 0.9 | 1.7 | 0.00 | 0.00 | 0.00 | 85 | 1017.6 |
| 20260906082931 | 72 | 141 | 0.9 | 1.7 | 0.00 | 0.00 | 0.00 | 85 | 1017.6 |
| 20260906082432 | 72 | 104 | 1.7 | 2.6 | 0.00 | 0.00 | 0.00 | 84 | 1017.5 |
| 20260906081931 | 72 | 108 | 1.7 | 2.6 | 0.00 | 0.00 | 0.00 | 85 | 1017.5 |
| 20260906081431 | 72 | 106 | 1.7 | 1.7 | 0.00 | 0.00 | 0.00 | 84 | 1017.5 |
| 20260906080931 | 72 | 125 | 1.7 | 3.5 | 0.00 | 0.00 | 0.00 | 84 | 1017.5 |
| 20260906080432 | 72 | 138 | 1.7 | 4.3 | 0.00 | 0.00 | 0.00 | 84 | 1017.5 |
| 20260906075933 | 72 | 101 | 1.7 | 1.7 | 0.00 | 0.00 | 0.00 | 84 | 1017.6 |
| 20260906075431 | 72 | 117 | 1.7 | 4.3 | 0.00 | 0.00 | 0.00 | 84 | 1017.4 |
| 20260906074932 | 72 | 105 | 2.6 | 4.3 | 0.00 | 0.00 | 0.00 | 84 | 1017.4 |
| 20260906074431 | 72 | 109 | 2.6 | 3.5 | 0.00 | 0.00 | 0.00 | 84 | 1017.5 |
| 20260906073931 | 72 | 121 | 0.9 | 1.7 | 0.00 | 0.00 | 0.00 | 84 | 1017.5 |
| 20260906073434 | 72 | 108 | 1.7 | 2.6 | 0.00 | 0.00 | 0.00 | 84 | 1017.5 |
| 20260906072931 | 73 | 150 | 0.9 | 2.6 | 0.00 | 0.00 | 0.00 | 84 | 1017.5 |
| 20260906072431 | 73 | 172 | 0.0 | 0.9 | 0.00 | 0.00 | 0.00 | 84 | 1017.5 |
| 20260906071931 | 73 | 360 | 0.0 | 0.0 | 0.00 | 0.00 | 0.00 | 84 | 1017.6 |
| 20260906071431 | 73 | 133 | 0.9 | 1.7 | 0.00 | 0.00 | 0.00 | 84 | 1017.7 |
| 20260906070931 | 73 | 167 | 0.9 | 1.7 | 0.00 | 0.00 | 0.00 | 84 | 1017.8 |
| 20260906070432 | 73 | 144 | 0.9 | 1.7 | 0.00 | 0.00 | 0.00 | 83 | 1017.8 |
| 20260906065936 | 73 | 146 | 0.9 | 1.7 | 0.00 | 0.00 | 0.00 | 83 | 1017.9 |
| 20260906065431 | 73 | 116 | 0.9 | 2.6 | 0.00 | 0.00 | 0.00 | 83 | 1017.9 |
| 20260906064933 | 73 | 360 | 0.0 | 0.0 | 0.00 | 0.00 | 0.00 | 83 | 1018.0 |
| 20260906064431 | 73 | 146 | 0.9 | 1.7 | 0.00 | 0.00 | 0.00 | 83 | 1018.0 |
| 20260906063931 | 73 | 98 | 0.9 | 1.7 | 0.00 | 0.00 | 0.00 | 83 | 1018.0 |
| 20260906063431 | 73 | 142 | 1.7 | 2.6 | 0.00 | 0.00 | 0.00 | 83 | 1017.9 |
| 20260906062931 | 73 | 148 | 1.7 | 1.7 | 0.00 | 0.00 | 0.00 | 83 | 1017.9 |
| 20260906062431 | 73 | 146 | 1.7 | 2.6 | 0.00 | 0.00 | 0.00 | 83 | 1017.8 |
| 20260906061931 | 73 | 167 | 0.9 | 2.6 | 0.00 | 0.00 | 0.00 | 83 | 1017.9 |
| 20260906061431 | 73 | 119 | 0.9 | 1.7 | 0.00 | 0.00 | 0.00 | 83 | 1017.9 |
| 20260906060931 | 73 | 121 | 1.7 | 3.5 | 0.00 | 0.00 | 0.00 | 83 | 1017.9 |
| 20260906060431 | 73 | 124 | 1.7 | 2.6 | 0.00 | 0.00 | 0.00 | 83 | 1017.9 |
| 20260906055931 | 73 | 100 | 0.9 | 3.5 | 0.00 | 0.00 | 0.00 | 83 | 1017.9 |
| 20260906055431 | 73 | 153 | 1.7 | 2.6 | 0.00 | 0.00 | 0.00 | 83 | 1017.8 |
| 20260906054931 | 73 | 136 | 1.7 | 2.6 | 0.00 | 0.00 | 0.00 | 83 | 1017.9 |
| 20260906054433 | 73 | 171 | 1.7 | 3.5 | 0.00 | 0.00 | 0.00 | 83 | 1017.8 |
| 20260906053932 | 73 | 136 | 0.9 | 2.6 | 0.00 | 0.00 | 0.00 | 83 | 1017.8 |
| 20260906053432 | 73 | 144 | 0.0 | 0.9 | 0.00 | 0.00 | 0.00 | 83 | 1017.8 |
| 20260906052931 | 73 | 114 | 1.7 | 2.6 | 0.00 | 0.00 | 0.00 | 83 | 1017.8 |
| 20260906052431 | 73 | 146 | 0.9 | 0.9 | 0.00 | 0.00 | 0.00 | 83 | 1017.8 |
| 20260906051931 | 73 | 360 | 0.0 | 0.0 | 0.00 | 0.00 | 0.00 | 82 | 1017.8 |
| 20260906051431 | 73 | 360 | 0.0 | 0.0 | 0.00 | 0.00 | 0.00 | 82 | 1017.9 |
| 20260906050931 | 74 | 360 | 0.0 | 0.0 | 0.00 | 0.00 | 0.00 | 82 | 1017.9 |
| 20260906050431 | 74 | 101 | 0.9 | 1.7 | 0.00 | 0.00 | 0.00 | 82 | 1017.9 |
| 20260906045930 | 74 | 97 | 0.0 | 1.7 | 0.00 | 0.00 | 0.00 | 82 | 1017.9 |
| 20260906045431 | 74 | 117 | 1.7 | 2.6 | 0.00 | 0.00 | 0.00 | 82 | 1017.9 |
| 20260906044931 | 74 | 143 | 0.9 | 1.7 | 0.00 | 0.00 | 0.00 | 82 | 1017.9 |
| 20260906044431 | 74 | 137 | 0.0 | 0.9 | 0.00 | 0.00 | 0.00 | 83 | 1018.0 |
| 20260906043931 | 74 | 154 | 0.9 | 1.7 | 0.00 | 0.00 | 0.00 | 82 | 1018.0 |
| 20260906043431 | 74 | 156 | 0.0 | 1.7 | 0.00 | 0.00 | 0.00 | 82 | 1018.2 |
| 20260906042931 | 74 | 360 | 0.0 | 0.0 | 0.00 | 0.00 | 0.00 | 82 | 1018.2 |
| 20260906042431 | 74 | 360 | 0.0 | 0.0 | 0.00 | 0.00 | 0.00 | 82 | 1018.3 |
| 20260906041931 | 74 | 106 | 1.7 | 1.7 | 0.00 | 0.00 | 0.00 | 82 | 1018.3 |
| 20260906041431 | 74 | 111 | 0.0 | 0.9 | 0.00 | 0.00 | 0.00 | 81 | 1018.3 |
| 20260906040932 | 74 | 360 | 0.0 | 0.0 | 0.00 | 0.00 | 0.00 | 81 | 1018.3 |
| 20260906040430 | 74 | 93 | 0.9 | 1.7 | 0.00 | 0.00 | 0.00 | 81 | 1018.3 |
| 20260906035931 | 74 | 142 | 0.9 | 1.7 | 0.00 | 0.00 | 0.00 | 81 | 1018.3 |
| 20260906035431 | 74 | 117 | 0.9 | 1.7 | 0.00 | 0.00 | 0.00 | 81 | 1018.2 |
| 20260906034931 | 74 | 360 | 0.0 | 0.0 | 0.00 | 0.00 | 0.00 | 81 | 1018.3 |
| 20260906034431 | 74 | 360 | 0.0 | 0.0 | 0.00 | 0.00 | 0.00 | 81 | 1018.4 |
| 20260906033931 | 74 | 82 | 0.9 | 2.6 | 0.00 | 0.00 | 0.00 | 80 | 1018.4 |
| 20260906033431 | 75 | 360 | 0.0 | 0.0 | 0.00 | 0.00 | 0.00 | 80 | 1018.3 |
| 20260906032931 | 75 | 360 | 0.0 | 0.0 | 0.00 | 0.00 | 0.00 | 80 | 1018.3 |
| 20260906032431 | 75 | 82 | 0.9 | 1.7 | 0.00 | 0.00 | 0.00 | 80 | 1018.3 |
| 20260906031931 | 75 | 360 | 0.0 | 0.0 | 0.00 | 0.00 | 0.00 | 80 | 1018.4 |
| 20260906031431 | 75 | 360 | 0.0 | 0.0 | 0.00 | 0.00 | 0.00 | 80 | 1018.3 |
| 20260906030931 | 76 | 360 | 0.0 | 0.0 | 0.00 | 0.00 | 0.00 | 80 | 1018.4 |
| 20260906030431 | 76 | 360 | 0.0 | 0.0 | 0.00 | 0.00 | 0.00 | 80 | 1018.3 |
| 20260906025931 | 76 | 135 | 0.9 | 0.9 | 0.00 | 0.00 | 0.00 | 80 | 1018.2 |
| 20260906025432 | 76 | 360 | 0.0 | 0.0 | 0.00 | 0.00 | 0.00 | 79 | 1018.2 |
| 20260906024932 | 76 | 360 | 0.0 | 0.0 | 0.00 | 0.00 | 0.00 | 79 | 1018.2 |
| 20260906024431 | 76 | 162 | 0.9 | 1.7 | 0.00 | 0.00 | 0.00 | 79 | 1018.3 |
| 20260906023931 | 76 | 193 | 0.9 | 1.7 | 0.00 | 0.00 | 0.00 | 79 | 1018.4 |
| 20260906023431 | 76 | 360 | 0.0 | 0.0 | 0.00 | 0.00 | 0.00 | 79 | 1018.3 |
| 20260906022931 | 76 | 146 | 1.7 | 2.6 | 0.00 | 0.00 | 0.00 | 79 | 1018.3 |
| 20260906022431 | 76 | 224 | 2.6 | 3.5 | 0.00 | 0.00 | 0.00 | 78 | 1018.3 |
| 20260906021931 | 77 | 216 | 1.7 | 1.7 | 0.00 | 0.00 | 0.00 | 78 | 1018.0 |
| 20260906021431 | 77 | 251 | 0.9 | 2.6 | 0.00 | 0.00 | 0.00 | 78 | 1017.9 |
| 20260906020931 | 77 | 220 | 2.6 | 3.5 | 0.00 | 0.00 | 0.00 | 78 | 1017.7 |
| 20260906020431 | 77 | 203 | 2.6 | 4.3 | 0.00 | 0.00 | 0.00 | 78 | 1017.5 |
| 20260906015931 | 77 | 159 | 0.9 | 2.6 | 0.00 | 0.00 | 0.00 | 78 | 1017.4 |
| 20260906015432 | 77 | 144 | 0.9 | 1.7 | 0.00 | 0.00 | 0.00 | 77 | 1017.2 |
| 20260906014931 | 77 | 189 | 1.7 | 1.7 | 0.00 | 0.00 | 0.00 | 77 | 1017.0 |
| 20260906014431 | 77 | 169 | 2.6 | 2.6 | 0.00 | 0.00 | 0.00 | 77 | 1016.9 |
| 20260906013931 | 77 | 191 | 0.9 | 0.9 | 0.00 | 0.00 | 0.00 | 77 | 1016.8 |
| 20260906013431 | 77 | 180 | 1.7 | 2.6 | 0.00 | 0.00 | 0.00 | 76 | 1016.5 |
| 20260906012931 | 77 | 205 | 1.7 | 2.6 | 0.00 | 0.00 | 0.00 | 75 | 1016.3 |
| 20260906012431 | 78 | 190 | 0.9 | 1.7 | 0.00 | 0.00 | 0.00 | 75 | 1016.2 |
| 20260906011931 | 77 | 183 | 1.7 | 2.6 | 0.00 | 0.00 | 0.00 | 74 | 1016.1 |
| 20260906011432 | 78 | 218 | 3.5 | 4.3 | 0.00 | 0.00 | 0.00 | 72 | 1016.0 |
| 20260906010931 | 78 | 197 | 1.7 | 3.5 | 0.00 | 0.00 | 0.00 | 72 | 1015.9 |
| 20260906010433 | 78 | 360 | 0.0 | 0.0 | 0.00 | 0.00 | 0.00 | 71 | 1015.8 |
| 20260906005931 | 78 | 112 | 1.7 | 3.5 | 0.00 | 0.00 | 0.00 | 71 | 1015.6 |
| 20260906005431 | 78 | 91 | 1.7 | 1.7 | 0.00 | 0.00 | 0.00 | 71 | 1015.5 |
| 20260906004932 | 79 | 110 | 1.7 | 3.5 | 0.00 | 0.00 | 0.00 | 70 | 1015.6 |
| 20260906004431 | 79 | 134 | 0.9 | 1.7 | 0.00 | 0.00 | 0.00 | 70 | 1015.7 |
| 20260906003932 | 79 | 140 | 0.0 | 1.7 | 0.00 | 0.00 | 0.00 | 70 | 1015.7 |
| 20260906003431 | 79 | 114 | 1.7 | 2.6 | 0.00 | 0.00 | 0.00 | 69 | 1015.5 |
| 20260906002931 | 80 | 93 | 1.7 | 2.6 | 0.00 | 0.00 | 0.00 | 69 | 1015.4 |
| 20260906002432 | 80 | 89 | 0.9 | 1.7 | 0.00 | 0.00 | 0.00 | 69 | 1015.4 |
| 20260906001931 | 80 | 95 | 0.9 | 1.7 | 0.00 | 0.00 | 0.00 | 69 | 1015.3 |
| 20260906001431 | 80 | 92 | 2.6 | 3.5 | 0.00 | 0.00 | 0.00 | 69 | 1015.2 |
| 20260906000931 | 80 | 135 | 2.6 | 4.3 | 0.00 | 0.00 | 0.00 | 69 | 1015.2 |
| 20260906000433 | 80 | 360 | 0.0 | 0.0 | 0.00 | 0.00 | 0.00 | 69 | 1015.2 |
| 20260905235932 | 81 | 90 | 1.7 | 2.6 | 0.00 | 0.00 | 0.00 | 69 | 1015.3 |
| 20260905235431 | 81 | 91 | 0.9 | 2.6 | 0.00 | 0.00 | 0.00 | 68 | 1015.5 |
| 20260905234932 | 81 | 101 | 1.7 | 3.5 | 0.00 | 0.00 | 0.00 | 69 | 1015.6 |
| 20260905234431 | 81 | 107 | 1.7 | 3.5 | 0.00 | 0.00 | 0.00 | 69 | 1015.6 |
| 20260905233931 | 81 | 90 | 3.5 | 5.2 | 0.00 | 0.00 | 0.00 | 68 | 1015.4 |
| 20260905233431 | 81 | 106 | 3.5 | 6.1 | 0.00 | 0.00 | 0.00 | 68 | 1015.5 |
| 20260905232931 | 81 | 100 | 1.7 | 3.5 | 0.00 | 0.00 | 0.00 | 69 | 1015.4 |
| 20260905232431 | 82 | 111 | 1.7 | 3.5 | 0.00 | 0.00 | 0.00 | 69 | 1015.3 |
| 20260905231931 | 82 | 89 | 2.6 | 3.5 | 0.00 | 0.00 | 0.00 | 68 | 1015.2 |
| 20260905231431 | 82 | 26 | 2.6 | 4.3 | 0.00 | 0.00 | 0.00 | 67 | 1015.2 |
| 20260905230931 | 82 | 69 | 3.5 | 5.2 | 0.00 | 0.00 | 0.00 | 68 | 1015.2 |
| 20260905230431 | 82 | 87 | 3.5 | 6.1 | 0.00 | 0.00 | 0.00 | 68 | 1015.2 |
| 20260905225931 | 82 | 90 | 1.7 | 2.6 | 0.00 | 0.00 | 0.00 | 68 | 1015.1 |
| 20260905225431 | 82 | 33 | 1.7 | 2.6 | 0.00 | 0.00 | 0.00 | 68 | 1015.1 |
| 20260905224931 | 82 | 103 | 2.6 | 5.2 | 0.00 | 0.00 | 0.00 | 67 | 1015.0 |
| 20260905224433 | 82 | 77 | 4.3 | 6.1 | 0.00 | 0.00 | 0.00 | 67 | 1014.9 |
| 20260905223931 | 82 | 96 | 3.5 | 4.3 | 0.00 | 0.00 | 0.00 | 66 | 1014.6 |
| 20260905223431 | 82 | 71 | 5.2 | 7.8 | 0.00 | 0.00 | 0.00 | 66 | 1014.6 |
| 20260905222931 | 82 | 105 | 3.5 | 5.2 | 0.00 | 0.00 | 0.00 | 66 | 1014.8 |
| 20260905222431 | 82 | 104 | 1.7 | 3.5 | 0.00 | 0.00 | 0.00 | 66 | 1015.0 |
| 20260905221931 | 82 | 58 | 3.5 | 4.3 | 0.00 | 0.00 | 0.00 | 66 | 1015.0 |
| 20260905221431 | 82 | 82 | 6.1 | 7.8 | 0.00 | 0.00 | 0.00 | 66 | 1015.0 |
| 20260905220931 | 82 | 60 | 6.1 | 8.7 | 0.00 | 0.00 | 0.00 | 66 | 1014.9 |
| 20260905220432 | 82 | 58 | 1.7 | 3.5 | 0.00 | 0.00 | 0.00 | 67 | 1015.2 |
| 20260905215931 | 82 | 115 | 2.6 | 4.3 | 0.00 | 0.00 | 0.00 | 66 | 1015.3 |
| 20260905215431 | 82 | 96 | 3.5 | 5.2 | 0.00 | 0.00 | 0.00 | 67 | 1015.3 |
| 20260905214931 | 82 | 109 | 7.0 | 9.6 | 0.00 | 0.00 | 0.00 | 68 | 1015.3 |
| 20260905214431 | 82 | 96 | 0.9 | 2.6 | 0.00 | 0.00 | 0.00 | 68 | 1015.4 |
| 20260905213931 | 82 | 93 | 4.3 | 6.1 | 0.00 | 0.00 | 0.00 | 67 | 1015.4 |
| 20260905213431 | 82 | 94 | 1.7 | 2.6 | 0.00 | 0.00 | 0.00 | 69 | 1015.4 |
| 20260905212931 | 82 | 86 | 2.6 | 4.3 | 0.00 | 0.00 | 0.00 | 69 | 1015.5 |
| 20260905212431 | 82 | 98 | 4.3 | 6.1 | 0.00 | 0.00 | 0.00 | 69 | 1015.5 |
| 20260905211931 | 82 | 77 | 0.9 | 2.6 | 0.00 | 0.00 | 0.00 | 70 | 1015.5 |
| 20260905211432 | 82 | 79 | 3.5 | 5.2 | 0.00 | 0.00 | 0.00 | 69 | 1015.4 |
| 20260905210931 | 82 | 26 | 1.7 | 2.6 | 0.00 | 0.00 | 0.00 | 69 | 1015.3 |
| 20260905210431 | 82 | 65 | 1.7 | 4.3 | 0.00 | 0.00 | 0.00 | 70 | 1015.2 |
| 20260905205931 | 82 | 102 | 5.2 | 12.2 | 0.00 | 0.00 | 0.00 | 69 | 1015.2 |
| 20260905205431 | 82 | 103 | 8.7 | 11.3 | 0.00 | 0.00 | 0.00 | 69 | 1015.6 |
| 20260905204932 | 82 | 62 | 5.2 | 7.0 | 0.00 | 0.00 | 0.00 | 70 | 1015.8 |
| 20260905204431 | 82 | 50 | 6.1 | 13.0 | 0.00 | 0.00 | 0.00 | 70 | 1016.1 |
| 20260905203932 | 81 | 359 | 1.7 | 2.6 | 0.00 | 0.00 | 0.00 | 70 | 1016.2 |
| 20260905203432 | 81 | 113 | 5.2 | 7.8 | 0.00 | 0.00 | 0.00 | 71 | 1016.3 |
| 20260905202932 | 81 | 102 | 1.7 | 3.5 | 0.00 | 0.00 | 0.00 | 72 | 1016.4 |
| 20260905202431 | 81 | 84 | 1.7 | 3.5 | 0.00 | 0.00 | 0.00 | 71 | 1016.4 |
| 20260905201932 | 81 | 72 | 3.5 | 6.1 | 0.00 | 0.00 | 0.00 | 71 | 1016.5 |
| 20260905201431 | 81 | 117 | 4.3 | 7.0 | 0.00 | 0.00 | 0.00 | 72 | 1016.5 |
| 20260905200931 | 81 | 91 | 3.5 | 5.2 | 0.00 | 0.00 | 0.00 | 72 | 1016.6 |
| 20260905200431 | 80 | 77 | 4.3 | 7.8 | 0.00 | 0.00 | 0.00 | 72 | 1016.8 |
| 20260905195931 | 80 | 232 | 0.9 | 1.7 | 0.00 | 0.00 | 0.00 | 73 | 1017.0 |
| 20260905195432 | 80 | 70 | 2.6 | 2.6 | 0.00 | 0.00 | 0.00 | 74 | 1017.1 |
| 20260905194932 | 80 | 101 | 0.9 | 2.6 | 0.00 | 0.00 | 0.00 | 75 | 1017.2 |
| 20260905194433 | 80 | 102 | 1.7 | 3.5 | 0.00 | 0.00 | 0.00 | 74 | 1017.2 |
| 20260905193931 | 80 | 103 | 2.6 | 5.2 | 0.00 | 0.00 | 0.00 | 75 | 1017.3 |
| 20260905193431 | 79 | 360 | 0.0 | 0.0 | 0.00 | 0.00 | 0.00 | 76 | 1017.3 |
| 20260905192932 | 79 | 107 | 0.9 | 4.3 | 0.00 | 0.00 | 0.00 | 75 | 1017.3 |
| 20260905192435 | 79 | 88 | 1.7 | 3.5 | 0.00 | 0.00 | 0.00 | 76 | 1017.4 |
| 20260905191931 | 79 | 69 | 0.9 | 2.6 | 0.00 | 0.00 | 0.00 | 77 | 1017.4 |